sensor_id;sensor_type;location;lat;lon;timestamp;pressure;altitude;pressure_sealevel;temperature;humidity
12203;BME280;6164;42.178;24.622;2023-12-22T00:00:53;98202.75;;;1.77;100.00
12203;BME280;6164;42.178;24.622;2023-12-22T00:03:20;98199.84;;;1.80;100.00
12203;BME280;6164;42.178;24.622;2023-12-22T00:05:46;98196.00;;;1.84;100.00
12203;BME280;6164;42.178;24.622;2023-12-22T00:08:14;98187.34;;;1.93;100.00
12203;BME280;6164;42.178;24.622;2023-12-22T00:10:41;98183.59;;;1.95;100.00
12203;BME280;6164;42.178;24.622;2023-12-22T00:13:07;98186.19;;;1.95;100.00
12203;BME280;6164;42.178;24.622;2023-12-22T00:15:33;98178.09;;;1.98;100.00
12203;BME280;6164;42.178;24.622;2023-12-22T00:18:00;98175.03;;;2.03;100.00
12203;BME280;6164;42.178;24.622;2023-12-22T00:20:26;98163.53;;;2.05;100.00
12203;BME280;6164;42.178;24.622;2023-12-22T00:22:53;98168.56;;;2.07;100.00
12203;BME280;6164;42.178;24.622;2023-12-22T00:25:21;98178.38;;;2.13;100.00
12203;BME280;6164;42.178;24.622;2023-12-22T00:27:47;98183.66;;;2.21;100.00
12203;BME280;6164;42.178;24.622;2023-12-22T00:30:14;98175.63;;;2.32;100.00
12203;BME280;6164;42.178;24.622;2023-12-22T00:32:41;98157.91;;;2.35;100.00
12203;BME280;6164;42.178;24.622;2023-12-22T00:35:07;98157.09;;;2.35;100.00
12203;BME280;6164;42.178;24.622;2023-12-22T00:37:34;98166.00;;;2.32;100.00
12203;BME280;6164;42.178;24.622;2023-12-22T00:39:59;98161.41;;;2.26;100.00
12203;BME280;6164;42.178;24.622;2023-12-22T00:42:27;98162.03;;;2.20;100.00
12203;BME280;6164;42.178;24.622;2023-12-22T00:44:53;98154.59;;;2.08;100.00
12203;BME280;6164;42.178;24.622;2023-12-22T00:47:20;98156.31;;;1.99;100.00
12203;BME280;6164;42.178;24.622;2023-12-22T00:49:46;98158.41;;;1.96;100.00
12203;BME280;6164;42.178;24.622;2023-12-22T00:52:13;98168.50;;;1.99;100.00
12203;BME280;6164;42.178;24.622;2023-12-22T00:54:39;98170.81;;;2.02;100.00
12203;BME280;6164;42.178;24.622;2023-12-22T00:57:06;98165.00;;;2.08;100.00
12203;BME280;6164;42.178;24.622;2023-12-22T00:59:34;98168.94;;;2.12;100.00
12203;BME280;6164;42.178;24.622;2023-12-22T01:02:00;98166.88;;;2.15;100.00
12203;BME280;6164;42.178;24.622;2023-12-22T01:04:27;98168.84;;;2.21;100.00
12203;BME280;6164;42.178;24.622;2023-12-22T01:06:53;98162.41;;;2.25;100.00
12203;BME280;6164;42.178;24.622;2023-12-22T01:09:20;98160.44;;;2.27;100.00
12203;BME280;6164;42.178;24.622;2023-12-22T01:11:46;98161.09;;;2.29;100.00
12203;BME280;6164;42.178;24.622;2023-12-22T01:14:13;98162.44;;;2.33;100.00
12203;BME280;6164;42.178;24.622;2023-12-22T01:16:40;98167.50;;;2.35;100.00
12203;BME280;6164;42.178;24.622;2023-12-22T01:19:07;98162.97;;;2.37;100.00
12203;BME280;6164;42.178;24.622;2023-12-22T01:21:33;98157.47;;;2.40;100.00
12203;BME280;6164;42.178;24.622;2023-12-22T01:24:00;98149.34;;;2.43;100.00
12203;BME280;6164;42.178;24.622;2023-12-22T01:26:26;98147.41;;;2.45;100.00
12203;BME280;6164;42.178;24.622;2023-12-22T01:28:53;98151.63;;;2.46;100.00
12203;BME280;6164;42.178;24.622;2023-12-22T01:31:19;98144.44;;;2.40;100.00
12203;BME280;6164;42.178;24.622;2023-12-22T01:33:47;98142.50;;;2.42;100.00
12203;BME280;6164;42.178;24.622;2023-12-22T01:36:13;98142.28;;;2.35;100.00
12203;BME280;6164;42.178;24.622;2023-12-22T01:38:40;98132.84;;;2.34;100.00
12203;BME280;6164;42.178;24.622;2023-12-22T01:41:06;98125.94;;;2.25;100.00
12203;BME280;6164;42.178;24.622;2023-12-22T01:43:33;98113.25;;;2.22;100.00
12203;BME280;6164;42.178;24.622;2023-12-22T01:46:00;98108.84;;;2.23;100.00
12203;BME280;6164;42.178;24.622;2023-12-22T01:48:27;98105.75;;;2.27;100.00
12203;BME280;6164;42.178;24.622;2023-12-22T01:50:55;98102.06;;;2.30;100.00
12203;BME280;6164;42.178;24.622;2023-12-22T01:53:23;98106.28;;;2.31;100.00
12203;BME280;6164;42.178;24.622;2023-12-22T01:55:50;98095.91;;;2.13;100.00
12203;BME280;6164;42.178;24.622;2023-12-22T01:58:18;98097.06;;;2.11;100.00
12203;BME280;6164;42.178;24.622;2023-12-22T02:00:45;98099.56;;;2.03;100.00
12203;BME280;6164;42.178;24.622;2023-12-22T02:03:12;98112.16;;;1.90;100.00
12203;BME280;6164;42.178;24.622;2023-12-22T02:05:39;98120.03;;;1.80;100.00
12203;BME280;6164;42.178;24.622;2023-12-22T02:08:08;98103.91;;;1.77;100.00
12203;BME280;6164;42.178;24.622;2023-12-22T02:10:34;98096.31;;;1.83;100.00
12203;BME280;6164;42.178;24.622;2023-12-22T02:13:01;98088.72;;;1.90;100.00
12203;BME280;6164;42.178;24.622;2023-12-22T02:15:27;98094.16;;;1.96;100.00
12203;BME280;6164;42.178;24.622;2023-12-22T02:17:55;98094.19;;;2.04;100.00
12203;BME280;6164;42.178;24.622;2023-12-22T02:20:24;98095.25;;;2.11;100.00
12203;BME280;6164;42.178;24.622;2023-12-22T02:22:52;98078.53;;;2.14;100.00
12203;BME280;6164;42.178;24.622;2023-12-22T02:25:19;98060.88;;;2.08;100.00
12203;BME280;6164;42.178;24.622;2023-12-22T02:27:47;98064.47;;;2.07;100.00
12203;BME280;6164;42.178;24.622;2023-12-22T02:30:16;98054.28;;;2.13;100.00
12203;BME280;6164;42.178;24.622;2023-12-22T02:32:47;98052.03;;;2.18;100.00
12203;BME280;6164;42.178;24.622;2023-12-22T02:35:15;98048.06;;;2.14;100.00
12203;BME280;6164;42.178;24.622;2023-12-22T02:37:43;98045.84;;;2.19;100.00
12203;BME280;6164;42.178;24.622;2023-12-22T02:40:12;98059.69;;;2.20;100.00
12203;BME280;6164;42.178;24.622;2023-12-22T02:42:40;98066.50;;;2.21;100.00
12203;BME280;6164;42.178;24.622;2023-12-22T02:45:12;98058.25;;;2.25;100.00
12203;BME280;6164;42.178;24.622;2023-12-22T02:47:39;98065.91;;;2.27;100.00
12203;BME280;6164;42.178;24.622;2023-12-22T02:50:06;98066.59;;;2.29;100.00
12203;BME280;6164;42.178;24.622;2023-12-22T02:52:33;98065.09;;;2.26;100.00
12203;BME280;6164;42.178;24.622;2023-12-22T02:55:00;98065.41;;;2.23;100.00
12203;BME280;6164;42.178;24.622;2023-12-22T02:57:28;98078.53;;;2.14;100.00
12203;BME280;6164;42.178;24.622;2023-12-22T02:59:55;98090.06;;;1.94;100.00
12203;BME280;6164;42.178;24.622;2023-12-22T03:02:22;98077.81;;;1.86;100.00
12203;BME280;6164;42.178;24.622;2023-12-22T03:04:48;98068.00;;;1.80;100.00
12203;BME280;6164;42.178;24.622;2023-12-22T03:07:15;98054.84;;;1.82;100.00
12203;BME280;6164;42.178;24.622;2023-12-22T03:09:42;98067.19;;;1.80;100.00
12203;BME280;6164;42.178;24.622;2023-12-22T03:12:09;98049.34;;;1.85;100.00
12203;BME280;6164;42.178;24.622;2023-12-22T03:14:37;98048.75;;;1.91;100.00
12203;BME280;6164;42.178;24.622;2023-12-22T03:17:04;98054.16;;;1.97;100.00
12203;BME280;6164;42.178;24.622;2023-12-22T03:19:31;98051.94;;;2.02;100.00
12203;BME280;6164;42.178;24.622;2023-12-22T03:21:57;98055.31;;;2.03;100.00
12203;BME280;6164;42.178;24.622;2023-12-22T03:24:24;98071.91;;;2.02;100.00
12203;BME280;6164;42.178;24.622;2023-12-22T03:26:51;98068.75;;;1.90;100.00
12203;BME280;6164;42.178;24.622;2023-12-22T03:29:17;98062.56;;;1.91;100.00
12203;BME280;6164;42.178;24.622;2023-12-22T03:31:46;98059.22;;;1.99;100.00
12203;BME280;6164;42.178;24.622;2023-12-22T03:34:12;98043.44;;;2.00;100.00
12203;BME280;6164;42.178;24.622;2023-12-22T03:36:39;98043.13;;;2.03;100.00
12203;BME280;6164;42.178;24.622;2023-12-22T03:39:06;98055.31;;;2.03;100.00
12203;BME280;6164;42.178;24.622;2023-12-22T03:41:32;98073.25;;;2.06;100.00
12203;BME280;6164;42.178;24.622;2023-12-22T03:43:59;98076.50;;;2.08;100.00
12203;BME280;6164;42.178;24.622;2023-12-22T03:46:25;98060.59;;;2.11;100.00
12203;BME280;6164;42.178;24.622;2023-12-22T03:48:54;98054.88;;;2.07;100.00
12203;BME280;6164;42.178;24.622;2023-12-22T03:51:20;98056.88;;;2.13;100.00
12203;BME280;6164;42.178;24.622;2023-12-22T03:53:47;98070.94;;;2.03;100.00
12203;BME280;6164;42.178;24.622;2023-12-22T03:56:13;98035.03;;;2.06;100.00
12203;BME280;6164;42.178;24.622;2023-12-22T03:58:39;98052.28;;;2.07;100.00
12203;BME280;6164;42.178;24.622;2023-12-22T04:01:06;98033.91;;;2.09;100.00
12203;BME280;6164;42.178;24.622;2023-12-22T04:03:33;98015.75;;;2.17;100.00
12203;BME280;6164;42.178;24.622;2023-12-22T04:06:02;98034.13;;;2.15;100.00
12203;BME280;6164;42.178;24.622;2023-12-22T04:08:29;98025.75;;;2.04;100.00
12203;BME280;6164;42.178;24.622;2023-12-22T04:10:55;98031.63;;;2.06;100.00
12203;BME280;6164;42.178;24.622;2023-12-22T04:13:22;98029.81;;;1.81;100.00
12203;BME280;6164;42.178;24.622;2023-12-22T04:15:48;98016.91;;;1.97;100.00
12203;BME280;6164;42.178;24.622;2023-12-22T04:18:15;98016.25;;;1.95;100.00
12203;BME280;6164;42.178;24.622;2023-12-22T04:20:41;98016.38;;;1.93;100.00
12203;BME280;6164;42.178;24.622;2023-12-22T04:23:09;98013.78;;;1.93;100.00
12203;BME280;6164;42.178;24.622;2023-12-22T04:25:35;98025.34;;;1.91;100.00
12203;BME280;6164;42.178;24.622;2023-12-22T04:28:02;98024.81;;;1.87;100.00
12203;BME280;6164;42.178;24.622;2023-12-22T04:30:28;98019.41;;;1.81;100.00
12203;BME280;6164;42.178;24.622;2023-12-22T04:32:55;98018.72;;;1.79;100.00
12203;BME280;6164;42.178;24.622;2023-12-22T04:35:22;98019.91;;;1.84;100.00
12203;BME280;6164;42.178;24.622;2023-12-22T04:37:48;98021.78;;;1.74;100.00
12203;BME280;6164;42.178;24.622;2023-12-22T04:40:16;98028.94;;;1.72;100.00
12203;BME280;6164;42.178;24.622;2023-12-22T04:42:43;98017.53;;;1.73;100.00
12203;BME280;6164;42.178;24.622;2023-12-22T04:45:09;98020.44;;;1.70;100.00
12203;BME280;6164;42.178;24.622;2023-12-22T04:47:36;98015.75;;;1.74;100.00
12203;BME280;6164;42.178;24.622;2023-12-22T04:50:02;98021.53;;;1.85;100.00
12203;BME280;6164;42.178;24.622;2023-12-22T04:52:29;98020.28;;;1.89;100.00
12203;BME280;6164;42.178;24.622;2023-12-22T04:54:55;98029.56;;;1.92;100.00
12203;BME280;6164;42.178;24.622;2023-12-22T04:57:33;98023.84;;;1.88;100.00
12203;BME280;6164;42.178;24.622;2023-12-22T05:00:00;98029.25;;;1.95;100.00
12203;BME280;6164;42.178;24.622;2023-12-22T05:02:27;98017.44;;;2.00;100.00
12203;BME280;6164;42.178;24.622;2023-12-22T05:04:54;98014.56;;;2.11;100.00
12203;BME280;6164;42.178;24.622;2023-12-22T05:07:20;98015.44;;;2.20;100.00
12203;BME280;6164;42.178;24.622;2023-12-22T05:09:47;98005.88;;;2.28;100.00
12203;BME280;6164;42.178;24.622;2023-12-22T05:12:13;97998.56;;;2.32;100.00
12203;BME280;6164;42.178;24.622;2023-12-22T05:14:41;97983.66;;;2.42;100.00
12203;BME280;6164;42.178;24.622;2023-12-22T05:17:07;98001.59;;;2.53;100.00
12203;BME280;6164;42.178;24.622;2023-12-22T05:19:35;98008.78;;;2.59;100.00
12203;BME280;6164;42.178;24.622;2023-12-22T05:22:03;97994.09;;;2.50;100.00
12203;BME280;6164;42.178;24.622;2023-12-22T05:24:29;98000.78;;;2.52;100.00
12203;BME280;6164;42.178;24.622;2023-12-22T05:26:56;98004.75;;;2.64;100.00
12203;BME280;6164;42.178;24.622;2023-12-22T05:29:22;98020.25;;;2.74;100.00
12203;BME280;6164;42.178;24.622;2023-12-22T05:31:50;98001.50;;;2.79;100.00
12203;BME280;6164;42.178;24.622;2023-12-22T05:34:17;97999.56;;;2.81;100.00
12203;BME280;6164;42.178;24.622;2023-12-22T05:36:43;97992.44;;;2.83;100.00
12203;BME280;6164;42.178;24.622;2023-12-22T05:39:09;97981.03;;;2.92;100.00
12203;BME280;6164;42.178;24.622;2023-12-22T05:41:37;97978.59;;;2.90;100.00
12203;BME280;6164;42.178;24.622;2023-12-22T05:44:03;97980.25;;;2.91;100.00
12203;BME280;6164;42.178;24.622;2023-12-22T05:46:30;97980.91;;;2.93;100.00
12203;BME280;6164;42.178;24.622;2023-12-22T05:48:58;97978.75;;;2.97;100.00
12203;BME280;6164;42.178;24.622;2023-12-22T05:51:25;97974.22;;;2.99;100.00
12203;BME280;6164;42.178;24.622;2023-12-22T05:53:51;97988.06;;;2.99;100.00
12203;BME280;6164;42.178;24.622;2023-12-22T05:56:19;98001.09;;;2.99;100.00
12203;BME280;6164;42.178;24.622;2023-12-22T05:58:46;97997.84;;;3.05;100.00
12203;BME280;6164;42.178;24.622;2023-12-22T06:01:16;97996.06;;;3.06;100.00
12203;BME280;6164;42.178;24.622;2023-12-22T06:03:43;98005.22;;;3.10;100.00
12203;BME280;6164;42.178;24.622;2023-12-22T06:06:11;98003.91;;;3.14;100.00
12203;BME280;6164;42.178;24.622;2023-12-22T06:08:38;98001.78;;;3.17;100.00
12203;BME280;6164;42.178;24.622;2023-12-22T06:11:04;97997.91;;;3.21;100.00
12203;BME280;6164;42.178;24.622;2023-12-22T06:13:31;98003.56;;;3.25;100.00
12203;BME280;6164;42.178;24.622;2023-12-22T06:15:57;98009.28;;;3.28;100.00
12203;BME280;6164;42.178;24.622;2023-12-22T06:18:24;97997.09;;;3.29;100.00
12203;BME280;6164;42.178;24.622;2023-12-22T06:20:50;97999.34;;;3.32;100.00
12203;BME280;6164;42.178;24.622;2023-12-22T06:23:18;97994.63;;;3.35;100.00
12203;BME280;6164;42.178;24.622;2023-12-22T06:25:45;97984.69;;;3.39;100.00
12203;BME280;6164;42.178;24.622;2023-12-22T06:28:13;98007.69;;;3.43;100.00
12203;BME280;6164;42.178;24.622;2023-12-22T06:30:42;98003.91;;;3.38;100.00
12203;BME280;6164;42.178;24.622;2023-12-22T06:33:08;98012.06;;;3.43;100.00
12203;BME280;6164;42.178;24.622;2023-12-22T06:35:35;98009.31;;;3.36;100.00
12203;BME280;6164;42.178;24.622;2023-12-22T06:38:02;98016.00;;;3.39;100.00
12203;BME280;6164;42.178;24.622;2023-12-22T06:40:32;98007.84;;;3.34;100.00
12203;BME280;6164;42.178;24.622;2023-12-22T06:43:00;97988.09;;;3.31;100.00
12203;BME280;6164;42.178;24.622;2023-12-22T06:45:26;97984.88;;;3.37;100.00
12203;BME280;6164;42.178;24.622;2023-12-22T06:47:53;98002.78;;;3.40;100.00
12203;BME280;6164;42.178;24.622;2023-12-22T06:50:19;98004.41;;;3.41;100.00
12203;BME280;6164;42.178;24.622;2023-12-22T06:52:46;98010.63;;;3.40;100.00
12203;BME280;6164;42.178;24.622;2023-12-22T06:55:14;98013.06;;;3.34;100.00
12203;BME280;6164;42.178;24.622;2023-12-22T06:57:42;98017.44;;;3.33;100.00
12203;BME280;6164;42.178;24.622;2023-12-22T07:00:09;98014.19;;;3.23;100.00
12203;BME280;6164;42.178;24.622;2023-12-22T07:02:35;98011.56;;;3.23;100.00
12203;BME280;6164;42.178;24.622;2023-12-22T07:05:02;98009.63;;;3.25;100.00
12203;BME280;6164;42.178;24.622;2023-12-22T07:07:34;98008.81;;;3.33;100.00
12203;BME280;6164;42.178;24.622;2023-12-22T07:10:01;98020.38;;;3.30;100.00
12203;BME280;6164;42.178;24.622;2023-12-22T07:12:27;98021.38;;;3.29;100.00
12203;BME280;6164;42.178;24.622;2023-12-22T07:14:55;98036.22;;;3.37;100.00
12203;BME280;6164;42.178;24.622;2023-12-22T07:17:22;98042.09;;;3.39;100.00
12203;BME280;6164;42.178;24.622;2023-12-22T07:19:48;98033.59;;;3.45;100.00
12203;BME280;6164;42.178;24.622;2023-12-22T07:22:17;98039.00;;;3.51;100.00
12203;BME280;6164;42.178;24.622;2023-12-22T07:24:43;98033.78;;;3.51;100.00
12203;BME280;6164;42.178;24.622;2023-12-22T07:27:10;98033.59;;;3.53;100.00
12203;BME280;6164;42.178;24.622;2023-12-22T07:29:36;98028.56;;;3.59;100.00
12203;BME280;6164;42.178;24.622;2023-12-22T07:32:05;98023.66;;;3.64;100.00
12203;BME280;6164;42.178;24.622;2023-12-22T07:34:31;98025.47;;;3.64;100.00
12203;BME280;6164;42.178;24.622;2023-12-22T07:36:58;98023.50;;;3.66;100.00
12203;BME280;6164;42.178;24.622;2023-12-22T07:39:24;98021.88;;;3.65;100.00
12203;BME280;6164;42.178;24.622;2023-12-22T07:41:51;98017.97;;;3.53;100.00
12203;BME280;6164;42.178;24.622;2023-12-22T07:44:17;98009.97;;;3.54;100.00
12203;BME280;6164;42.178;24.622;2023-12-22T07:46:44;98006.22;;;3.65;100.00
12203;BME280;6164;42.178;24.622;2023-12-22T07:49:11;97995.13;;;3.63;100.00
12203;BME280;6164;42.178;24.622;2023-12-22T07:51:38;97994.81;;;3.66;100.00
12203;BME280;6164;42.178;24.622;2023-12-22T07:54:04;97986.66;;;3.69;100.00
12203;BME280;6164;42.178;24.622;2023-12-22T07:56:31;97997.44;;;3.74;100.00
12203;BME280;6164;42.178;24.622;2023-12-22T07:58:58;97996.47;;;3.59;100.00
12203;BME280;6164;42.178;24.622;2023-12-22T08:01:25;97992.69;;;3.45;100.00
12203;BME280;6164;42.178;24.622;2023-12-22T08:03:51;98000.69;;;3.36;100.00
12203;BME280;6164;42.178;24.622;2023-12-22T08:06:19;98005.25;;;3.58;100.00
12203;BME280;6164;42.178;24.622;2023-12-22T08:08:46;98015.03;;;3.64;100.00
12203;BME280;6164;42.178;24.622;2023-12-22T08:11:12;98010.31;;;3.83;100.00
12203;BME280;6164;42.178;24.622;2023-12-22T08:13:38;98008.19;;;3.95;100.00
12203;BME280;6164;42.178;24.622;2023-12-22T08:16:05;98008.81;;;3.89;100.00
12203;BME280;6164;42.178;24.622;2023-12-22T08:18:32;98010.25;;;4.07;100.00
12203;BME280;6164;42.178;24.622;2023-12-22T08:20:58;98008.97;;;4.12;100.00
12203;BME280;6164;42.178;24.622;2023-12-22T08:23:26;98011.22;;;4.23;100.00
12203;BME280;6164;42.178;24.622;2023-12-22T08:25:52;98019.03;;;4.31;100.00
12203;BME280;6164;42.178;24.622;2023-12-22T08:28:19;98020.50;;;4.41;100.00
12203;BME280;6164;42.178;24.622;2023-12-22T08:30:45;98013.13;;;4.45;100.00
12203;BME280;6164;42.178;24.622;2023-12-22T08:33:12;98009.69;;;4.44;100.00
12203;BME280;6164;42.178;24.622;2023-12-22T08:35:43;98009.84;;;4.51;100.00
12203;BME280;6164;42.178;24.622;2023-12-22T08:38:10;98006.06;;;4.53;100.00
12203;BME280;6164;42.178;24.622;2023-12-22T08:40:39;97992.81;;;4.63;100.00
12203;BME280;6164;42.178;24.622;2023-12-22T08:43:06;97995.56;;;4.61;100.00
12203;BME280;6164;42.178;24.622;2023-12-22T08:45:32;97984.47;;;4.67;100.00
12203;BME280;6164;42.178;24.622;2023-12-22T08:47:59;97988.03;;;4.66;100.00
12203;BME280;6164;42.178;24.622;2023-12-22T08:50:25;97984.28;;;4.69;100.00
12203;BME280;6164;42.178;24.622;2023-12-22T08:52:52;97996.53;;;4.68;100.00
12203;BME280;6164;42.178;24.622;2023-12-22T08:55:18;97996.56;;;4.60;100.00
12203;BME280;6164;42.178;24.622;2023-12-22T08:57:46;97997.03;;;4.64;100.00
12203;BME280;6164;42.178;24.622;2023-12-22T09:00:13;97992.47;;;4.66;100.00
12203;BME280;6164;42.178;24.622;2023-12-22T09:02:40;98002.59;;;4.69;100.00
12203;BME280;6164;42.178;24.622;2023-12-22T09:05:06;98007.78;;;4.77;100.00
12203;BME280;6164;42.178;24.622;2023-12-22T09:07:33;98001.69;;;4.84;100.00
12203;BME280;6164;42.178;24.622;2023-12-22T09:09:59;98000.84;;;4.92;100.00
12203;BME280;6164;42.178;24.622;2023-12-22T09:12:26;98004.56;;;4.97;100.00
12203;BME280;6164;42.178;24.622;2023-12-22T09:14:54;98003.88;;;5.03;100.00
12203;BME280;6164;42.178;24.622;2023-12-22T09:17:20;98003.34;;;5.08;100.00
12203;BME280;6164;42.178;24.622;2023-12-22T09:19:47;98001.75;;;5.07;100.00
12203;BME280;6164;42.178;24.622;2023-12-22T09:22:13;98001.16;;;5.19;100.00
12203;BME280;6164;42.178;24.622;2023-12-22T09:24:40;98013.22;;;5.28;100.00
12203;BME280;6164;42.178;24.622;2023-12-22T09:27:09;98003.97;;;5.40;100.00
12203;BME280;6164;42.178;24.622;2023-12-22T09:29:35;97996.59;;;5.44;100.00
12203;BME280;6164;42.178;24.622;2023-12-22T09:32:04;97998.06;;;5.47;100.00
12203;BME280;6164;42.178;24.622;2023-12-22T09:34:30;97996.59;;;5.67;100.00
12203;BME280;6164;42.178;24.622;2023-12-22T09:36:57;97988.13;;;5.79;100.00
12203;BME280;6164;42.178;24.622;2023-12-22T09:39:23;97981.66;;;5.90;100.00
12203;BME280;6164;42.178;24.622;2023-12-22T09:41:50;97978.81;;;5.99;100.00
12203;BME280;6164;42.178;24.622;2023-12-22T09:44:17;97976.28;;;6.06;100.00
12203;BME280;6164;42.178;24.622;2023-12-22T09:46:45;97969.97;;;6.15;100.00
12203;BME280;6164;42.178;24.622;2023-12-22T09:49:13;97967.81;;;6.18;100.00
12203;BME280;6164;42.178;24.622;2023-12-22T09:51:40;97969.53;;;6.26;100.00
12203;BME280;6164;42.178;24.622;2023-12-22T09:54:07;97973.88;;;6.33;100.00
12203;BME280;6164;42.178;24.622;2023-12-22T09:56:34;97976.56;;;6.40;100.00
12203;BME280;6164;42.178;24.622;2023-12-22T09:59:03;97977.03;;;6.43;100.00
12203;BME280;6164;42.178;24.622;2023-12-22T10:01:30;97974.50;;;6.50;100.00
12203;BME280;6164;42.178;24.622;2023-12-22T10:03:57;97977.38;;;6.55;100.00
12203;BME280;6164;42.178;24.622;2023-12-22T10:06:25;97975.41;;;6.57;100.00
12203;BME280;6164;42.178;24.622;2023-12-22T10:08:52;97978.97;;;6.70;100.00
12203;BME280;6164;42.178;24.622;2023-12-22T10:11:19;97977.25;;;6.78;100.00
12203;BME280;6164;42.178;24.622;2023-12-22T10:13:47;97989.03;;;6.82;100.00
12203;BME280;6164;42.178;24.622;2023-12-22T10:16:14;97980.59;;;6.86;100.00
12203;BME280;6164;42.178;24.622;2023-12-22T10:18:41;97983.78;;;6.82;100.00
12203;BME280;6164;42.178;24.622;2023-12-22T10:21:07;97992.44;;;6.82;100.00
12203;BME280;6164;42.178;24.622;2023-12-22T10:23:35;97984.31;;;6.92;100.00
12203;BME280;6164;42.178;24.622;2023-12-22T10:26:02;97982.75;;;6.97;100.00
12203;BME280;6164;42.178;24.622;2023-12-22T10:28:28;97990.22;;;7.00;100.00
12203;BME280;6164;42.178;24.622;2023-12-22T10:30:56;97988.25;;;7.02;100.00
12203;BME280;6164;42.178;24.622;2023-12-22T10:33:24;97995.22;;;7.10;100.00
12203;BME280;6164;42.178;24.622;2023-12-22T10:35:50;98004.97;;;7.16;100.00
12203;BME280;6164;42.178;24.622;2023-12-22T10:38:18;98004.50;;;7.12;100.00
12203;BME280;6164;42.178;24.622;2023-12-22T10:40:49;98005.47;;;7.26;100.00
12203;BME280;6164;42.178;24.622;2023-12-22T10:43:15;98018.84;;;7.31;100.00
12203;BME280;6164;42.178;24.622;2023-12-22T10:45:42;98017.84;;;7.32;100.00
12203;BME280;6164;42.178;24.622;2023-12-22T10:48:08;98012.47;;;7.40;100.00
12203;BME280;6164;42.178;24.622;2023-12-22T10:50:36;98014.38;;;7.46;100.00
12203;BME280;6164;42.178;24.622;2023-12-22T10:53:05;98013.81;;;7.50;100.00
12203;BME280;6164;42.178;24.622;2023-12-22T10:55:32;98005.56;;;7.53;100.00
12203;BME280;6164;42.178;24.622;2023-12-22T10:58:02;97995.09;;;7.60;100.00
12203;BME280;6164;42.178;24.622;2023-12-22T11:00:29;97994.53;;;7.64;100.00
12203;BME280;6164;42.178;24.622;2023-12-22T11:02:59;97992.97;;;7.70;100.00
12203;BME280;6164;42.178;24.622;2023-12-22T11:05:27;97985.91;;;7.70;100.00
12203;BME280;6164;42.178;24.622;2023-12-22T11:07:55;97979.09;;;7.76;100.00
12203;BME280;6164;42.178;24.622;2023-12-22T11:10:26;97979.38;;;7.87;100.00
12203;BME280;6164;42.178;24.622;2023-12-22T11:12:53;97983.69;;;7.95;100.00
12203;BME280;6164;42.178;24.622;2023-12-22T11:15:22;97965.97;;;8.03;100.00
12203;BME280;6164;42.178;24.622;2023-12-22T11:17:52;97964.81;;;8.13;100.00
12203;BME280;6164;42.178;24.622;2023-12-22T11:20:18;97967.56;;;8.26;100.00
12203;BME280;6164;42.178;24.622;2023-12-22T11:22:45;97966.84;;;8.38;100.00
12203;BME280;6164;42.178;24.622;2023-12-22T11:25:12;97950.28;;;8.44;100.00
12203;BME280;6164;42.178;24.622;2023-12-22T11:27:40;97936.34;;;8.50;100.00
12203;BME280;6164;42.178;24.622;2023-12-22T11:30:09;97930.75;;;8.60;100.00
12203;BME280;6164;42.178;24.622;2023-12-22T11:32:38;97925.34;;;8.74;100.00
12203;BME280;6164;42.178;24.622;2023-12-22T11:35:05;97928.00;;;8.81;100.00
12203;BME280;6164;42.178;24.622;2023-12-22T11:37:33;97925.19;;;8.89;100.00
12203;BME280;6164;42.178;24.622;2023-12-22T11:40:01;97917.28;;;8.89;100.00
12203;BME280;6164;42.178;24.622;2023-12-22T11:42:28;97907.59;;;8.96;100.00
12203;BME280;6164;42.178;24.622;2023-12-22T11:44:56;97905.78;;;9.03;100.00
12203;BME280;6164;42.178;24.622;2023-12-22T11:47:23;97902.56;;;9.07;100.00
12203;BME280;6164;42.178;24.622;2023-12-22T11:49:52;97897.50;;;9.06;100.00
12203;BME280;6164;42.178;24.622;2023-12-22T11:52:24;97893.03;;;9.06;100.00
12203;BME280;6164;42.178;24.622;2023-12-22T11:54:53;97883.53;;;9.12;100.00
12203;BME280;6164;42.178;24.622;2023-12-22T12:00:03;97863.31;;;9.25;100.00
12203;BME280;6164;42.178;24.622;2023-12-22T12:02:33;97854.38;;;9.20;100.00
12203;BME280;6164;42.178;24.622;2023-12-22T12:05:02;97844.88;;;9.19;100.00
12203;BME280;6164;42.178;24.622;2023-12-22T12:07:37;97851.97;;;9.31;100.00
12203;BME280;6164;42.178;24.622;2023-12-22T12:10:06;97846.47;;;9.53;100.00
12203;BME280;6164;42.178;24.622;2023-12-22T12:12:33;97848.31;;;9.72;100.00
12203;BME280;6164;42.178;24.622;2023-12-22T12:15:07;97843.41;;;9.75;100.00
12203;BME280;6164;42.178;24.622;2023-12-22T12:17:34;97849.28;;;9.77;100.00
12203;BME280;6164;42.178;24.622;2023-12-22T12:20:06;97847.28;;;9.73;100.00
12203;BME280;6164;42.178;24.622;2023-12-22T12:22:34;97844.22;;;9.76;100.00
12203;BME280;6164;42.178;24.622;2023-12-22T12:25:03;97849.28;;;9.84;100.00
12203;BME280;6164;42.178;24.622;2023-12-22T12:27:30;97853.53;;;9.85;100.00
12203;BME280;6164;42.178;24.622;2023-12-22T12:30:00;97861.84;;;9.88;100.00
12203;BME280;6164;42.178;24.622;2023-12-22T12:32:30;97867.31;;;9.80;100.00
12203;BME280;6164;42.178;24.622;2023-12-22T12:34:57;97875.44;;;9.79;100.00
12203;BME280;6164;42.178;24.622;2023-12-22T12:37:25;97878.28;;;9.77;100.00
12203;BME280;6164;42.178;24.622;2023-12-22T12:39:51;97881.72;;;9.78;100.00
12203;BME280;6164;42.178;24.622;2023-12-22T12:42:21;97891.44;;;9.77;100.00
12203;BME280;6164;42.178;24.622;2023-12-22T12:44:48;97889.00;;;9.76;100.00
12203;BME280;6164;42.178;24.622;2023-12-22T12:47:15;97885.38;;;9.77;100.00
12203;BME280;6164;42.178;24.622;2023-12-22T12:49:41;97882.34;;;9.80;100.00
12203;BME280;6164;42.178;24.622;2023-12-22T12:52:11;97867.94;;;9.76;100.00
12203;BME280;6164;42.178;24.622;2023-12-22T12:54:39;97874.03;;;9.76;100.00
12203;BME280;6164;42.178;24.622;2023-12-22T12:57:06;97881.53;;;9.73;100.00
12203;BME280;6164;42.178;24.622;2023-12-22T12:59:32;97888.63;;;9.66;100.00
12203;BME280;6164;42.178;24.622;2023-12-22T13:01:59;97885.19;;;9.65;100.00